CheckWX is a tool to help pilots better visualize weather data.  It is not intended as a substitute for an official pre-flight weather briefing.

03:04:29 UTC

KAQW METAR
Harriman-And-West Airport
North Adams, Massachusetts, USA
Current

12 mins ago

KAQW 230252Z AUTO 00000KT 7SM CLR 17/17 A2997 RMK AO2 SLP147 T01720167 58008 $
Observed
Sep-23 @ 02:52 UTC
Visibility
7 SM
Flight Rules
VFR
Cloud Levels
  • Clear skies
Temperature
17°C / 63°F
Dewpoint
17°C / 63°F
Humidity
100%
Altimeter
29.97" Hg
Pressure
1014.92 hPa
Previous

1 hour ago

KAQW 230152Z AUTO 00000KT 8SM CLR 18/17 A2998 RMK AO2 SLP153 T01780172 $
Observed
Sep-23 @ 01:52 UTC
Visibility
8 SM
Flight Rules
VFR
Cloud Levels
  • Clear skies
Temperature
18°C / 64°F
Dewpoint
17°C / 63°F
Humidity
94%
Altimeter
29.98" Hg
Pressure
1015.22 hPa
Previous

2 hours ago

KAQW 230052Z AUTO 00000KT 10SM CLR 19/18 A2999 RMK AO2 SLP156 T01890178 $
Observed
Sep-23 @ 00:52 UTC
Visibility
10 SM
Flight Rules
VFR
Cloud Levels
  • Clear skies
Temperature
19°C / 66°F
Dewpoint
18°C / 64°F
Humidity
94%
Altimeter
29.99" Hg
Pressure
1015.62 hPa